Time;durP1;ratioP1;P1;durP2;ratioP2;P2;SDS_P1;SDS_P2;PMS_P1;PMS_P2;Temp;Humidity;BMP_temperature;BMP_pressure;BME280_temperature;BME280_humidity;BME280_pressure;Samples;Min_cycle;Max_cycle;Signal;HPM_P1;HPM_P2
2022/05/30 00:01:42;;;;;;;;;;;12.90;98.20;;;;;;4319334;33;43678;-76
2022/05/30 00:04:09;;;;;;;;;;;12.90;98.40;;;;;;4333106;33;19990;-76
2022/05/30 00:06:36;;;;;;;;;;;12.90;98.20;;;;;;4331821;33;43658;-76
2022/05/30 00:09:08;;;;;;;;;;;12.80;98.10;;;;;;4331649;33;44303;-76
2022/05/30 00:11:36;;;;;;;;;;;12.80;98.00;;;;;;4331982;33;42568;-76
2022/05/30 00:14:03;;;;;;;;;;;12.80;98.10;;;;;;4318792;33;43650;-76
2022/05/30 00:16:30;;;;;;;;;;;12.70;98.00;;;;;;4332322;33;43137;-76
2022/05/30 00:18:57;;;;;;;;;;;12.80;98.10;;;;;;4331994;33;43865;-76
2022/05/30 00:21:25;;;;;;;;;;;12.80;98.00;;;;;;4332139;33;42466;-76
2022/05/30 00:23:55;;;;;;;;;;;12.70;98.00;;;;;;4332084;33;43302;-76
2022/05/30 00:26:25;;;;;;;;;;;12.70;97.90;;;;;;4318695;33;42551;-76
2022/05/30 00:28:52;;;;;;;;;;;12.70;97.80;;;;;;4331483;33;43779;-76
2022/05/30 00:31:22;;;;;;;;;;;12.70;97.80;;;;;;4331929;33;44848;-76
2022/05/30 00:33:53;;;;;;;;;;;12.70;97.70;;;;;;4318716;33;42429;-76
2022/05/30 00:36:20;;;;;;;;;;;12.70;97.80;;;;;;4331858;33;43790;-76
2022/05/30 00:38:50;;;;;;;;;;;12.70;97.80;;;;;;4318406;33;42946;-76
2022/05/30 00:41:17;;;;;;;;;;;12.70;97.70;;;;;;4318238;33;42560;-76
2022/05/30 00:43:45;;;;;;;;;;;12.70;97.80;;;;;;4331946;33;44835;-76
2022/05/30 00:46:12;;;;;;;;;;;12.60;97.90;;;;;;4317623;33;42849;-76
2022/05/30 00:48:44;;;;;;;;;;;12.60;97.80;;;;;;4318051;33;42931;-76
2022/05/30 00:51:16;;;;;;;;;;;12.60;97.90;;;;;;4318124;33;42850;-76
2022/05/30 00:53:49;;;;;;;;;;;12.60;97.80;;;;;;4331301;33;43662;-76
2022/05/30 00:56:21;;;;;;;;;;;12.60;97.90;;;;;;4318282;33;43798;-76
2022/05/30 00:58:50;;;;;;;;;;;12.60;97.90;;;;;;4318302;33;43737;-76
2022/05/30 01:01:18;;;;;;;;;;;12.60;98.00;;;;;;4318275;33;43289;-76
2022/05/30 01:06:35;;;;;;;;;;;12.60;97.80;;;;;;4331887;33;44188;-76
2022/05/30 01:09:05;;;;;;;;;;;12.50;97.80;;;;;;4331236;33;43708;-75
2022/05/30 01:11:47;;;;;;;;;;;12.50;97.80;;;;;;4331009;33;43884;-76
2022/05/30 01:14:17;;;;;;;;;;;12.50;97.80;;;;;;4317811;33;44241;-76
2022/05/30 01:16:50;;;;;;;;;;;12.50;97.70;;;;;;4330861;33;42985;-76
2022/05/30 01:19:23;;;;;;;;;;;12.50;97.70;;;;;;4331166;33;43148;-76
2022/05/30 01:22:14;;;;;;;;;;;12.50;98.10;;;;;;4331336;33;43708;-76
2022/05/30 01:25:00;;;;;;;;;;;12.50;97.80;;;;;;4331435;33;43766;-76
2022/05/30 01:27:38;;;;;;;;;;;12.50;97.70;;;;;;4331128;33;42126;-76
2022/05/30 01:30:10;;;;;;;;;;;12.50;97.80;;;;;;4331225;33;42941;-76
2022/05/30 01:32:37;;;;;;;;;;;12.40;97.70;;;;;;4331302;33;43080;-76
2022/05/30 01:35:05;;;;;;;;;;;12.40;97.70;;;;;;4317512;33;42501;-76
2022/05/30 01:37:35;;;;;;;;;;;12.40;97.70;;;;;;4331719;33;19997;-76
2022/05/30 01:40:03;;;;;;;;;;;12.40;97.70;;;;;;4330558;33;43039;-76
2022/05/30 01:42:30;;;;;;;;;;;12.40;97.70;;;;;;4331016;33;44438;-76
2022/05/30 01:45:00;;;;;;;;;;;12.40;97.70;;;;;;4330950;33;43871;-76
2022/05/30 01:47:27;;;;;;;;;;;12.40;97.60;;;;;;4330500;33;43720;-76
2022/05/30 01:50:00;;;;;;;;;;;12.40;97.50;;;;;;4330551;33;43750;-76
2022/05/30 01:52:31;;;;;;;;;;;12.30;97.40;;;;;;4331074;33;43148;-76
2022/05/30 01:54:59;;;;;;;;;;;12.40;97.40;;;;;;4317434;33;42022;-76
2022/05/30 01:57:26;;;;;;;;;;;12.30;97.40;;;;;;4317421;33;43662;-76
2022/05/30 01:59:55;;;;;;;;;;;12.30;97.40;;;;;;4330714;33;43663;-76
2022/05/30 02:02:23;;;;;;;;;;;12.30;97.50;;;;;;4314831;33;43019;-76
2022/05/30 02:04:52;;;;;;;;;;;12.30;97.50;;;;;;4315826;33;42863;-76
2022/05/30 02:07:19;;;;;;;;;;;12.30;97.30;;;;;;4315073;33;44731;-76
2022/05/30 02:09:47;;;;;;;;;;;12.30;97.20;;;;;;4315914;33;42530;-76
2022/05/30 02:12:17;;;;;;;;;;;12.30;97.40;;;;;;4315106;33;42942;-76
2022/05/30 02:14:52;;;;;;;;;;;12.20;97.50;;;;;;4314511;33;44329;-76
2022/05/30 02:17:19;;;;;;;;;;;12.20;97.50;;;;;;4315346;33;43060;-76
2022/05/30 02:19:47;;;;;;;;;;;12.20;97.40;;;;;;4315833;33;43736;-76
2022/05/30 02:22:20;;;;;;;;;;;12.20;97.30;;;;;;4316023;33;43008;-76
2022/05/30 02:24:50;;;;;;;;;;;12.20;97.10;;;;;;4315542;33;42094;-76
2022/05/30 02:27:17;;;;;;;;;;;12.10;97.10;;;;;;4315572;33;43373;-76
2022/05/30 02:29:52;;;;;;;;;;;12.10;97.10;;;;;;4315424;33;43818;-76
2022/05/30 02:32:30;;;;;;;;;;;12.10;97.10;;;;;;4316056;33;43490;-76
2022/05/30 02:37:53;;;;;;;;;;;12.10;97.20;;;;;;4315547;33;44565;-76
2022/05/30 02:40:20;;;;;;;;;;;12.00;97.10;;;;;;4316209;33;43048;-76
2022/05/30 02:42:55;;;;;;;;;;;12.00;97.20;;;;;;4314886;33;43788;-76
2022/05/30 02:45:22;;;;;;;;;;;12.10;97.30;;;;;;4315890;33;43702;-76
2022/05/30 02:47:50;;;;;;;;;;;12.00;97.20;;;;;;4315763;33;43035;-76
2022/05/30 02:50:25;;;;;;;;;;;12.00;97.20;;;;;;4314182;33;42483;-76
2022/05/30 02:52:52;;;;;;;;;;;12.00;97.20;;;;;;4314475;33;42573;-76
2022/05/30 02:55:31;;;;;;;;;;;12.00;97.30;;;;;;4314858;33;43676;-76
2022/05/30 02:58:01;;;;;;;;;;;12.00;97.20;;;;;;4314827;33;43794;-76
2022/05/30 03:00:42;;;;;;;;;;;12.00;97.20;;;;;;4314699;33;44136;-76
2022/05/30 03:03:12;;;;;;;;;;;12.00;97.20;;;;;;4314330;33;43111;-76
2022/05/30 03:05:44;;;;;;;;;;;12.00;97.20;;;;;;4315313;33;42934;-76
2022/05/30 03:08:12;;;;;;;;;;;12.00;97.00;;;;;;4314753;33;43478;-76
2022/05/30 03:10:44;;;;;;;;;;;11.90;97.00;;;;;;4318307;33;20013;-76
2022/05/30 03:13:25;;;;;;;;;;;11.90;97.10;;;;;;4318108;33;42743;-76
2022/05/30 03:15:54;;;;;;;;;;;11.90;97.10;;;;;;4318522;33;43906;-76
2022/05/30 03:18:33;;;;;;;;;;;11.90;97.20;;;;;;4318516;33;43750;-76
2022/05/30 03:21:05;;;;;;;;;;;11.90;97.10;;;;;;4317968;33;42933;-76
2022/05/30 03:23:38;;;;;;;;;;;11.90;97.20;;;;;;4318388;33;43679;-76
2022/05/30 03:26:06;;;;;;;;;;;11.80;97.10;;;;;;4318490;33;43709;-76
2022/05/30 03:28:38;;;;;;;;;;;11.80;97.10;;;;;;4317698;33;42625;-76
2022/05/30 03:31:13;;;;;;;;;;;11.80;97.10;;;;;;4316683;33;43682;-76
2022/05/30 03:33:43;;;;;;;;;;;11.80;97.10;;;;;;4318395;33;43017;-76
2022/05/30 03:36:22;;;;;;;;;;;11.80;97.00;;;;;;4317163;33;43738;-76
2022/05/30 03:38:55;;;;;;;;;;;11.80;97.00;;;;;;4318095;33;42632;-76
2022/05/30 03:41:33;;;;;;;;;;;11.80;96.80;;;;;;4317998;33;19999;-76
2022/05/30 03:44:06;;;;;;;;;;;11.80;96.80;;;;;;4318099;33;43892;-76
2022/05/30 03:46:42;;;;;;;;;;;11.70;96.70;;;;;;4317948;33;44027;-76
2022/05/30 03:49:18;;;;;;;;;;;11.70;96.70;;;;;;4318075;33;43482;-76
2022/05/30 03:51:47;;;;;;;;;;;11.70;96.80;;;;;;4316892;33;42862;-76
2022/05/30 03:54:20;;;;;;;;;;;11.70;96.90;;;;;;4317436;33;42390;-76
2022/05/30 03:56:59;;;;;;;;;;;11.70;96.90;;;;;;4316875;33;43048;-76
2022/05/30 03:59:26;;;;;;;;;;;11.70;97.00;;;;;;4317488;33;44626;-76
2022/05/30 04:02:02;;;;;;;;;;;11.70;97.00;;;;;;4321684;33;43032;-76
2022/05/30 04:04:38;;;;;;;;;;;11.70;97.10;;;;;;4318824;33;43563;-76
2022/05/30 04:07:14;;;;;;;;;;;11.70;97.00;;;;;;4332486;33;42490;-76
2022/05/30 04:09:52;;;;;;;;;;;11.60;96.90;;;;;;4319209;33;43027;-76
2022/05/30 04:12:20;;;;;;;;;;;11.60;96.90;;;;;;4333257;33;19990;-76
2022/05/30 04:15:00;;;;;;;;;;;11.60;97.00;;;;;;4332077;33;43053;-76
2022/05/30 04:17:37;;;;;;;;;;;11.60;97.00;;;;;;4331776;33;44287;-76
2022/05/30 04:20:10;;;;;;;;;;;11.60;97.10;;;;;;4319105;33;42086;-76
2022/05/30 04:22:45;;;;;;;;;;;11.60;97.20;;;;;;4318025;33;42665;-76
2022/05/30 04:25:18;;;;;;;;;;;11.50;97.30;;;;;;4332316;33;44266;-76
2022/05/30 04:27:50;;;;;;;;;;;11.50;97.30;;;;;;4332054;33;43715;-76
2022/05/30 04:30:26;;;;;;;;;;;11.50;97.30;;;;;;4331949;33;42973;-76
2022/05/30 04:32:58;;;;;;;;;;;11.50;97.40;;;;;;4331967;33;43607;-76
2022/05/30 04:35:25;;;;;;;;;;;11.50;97.50;;;;;;4332090;33;43108;-76
2022/05/30 04:37:55;;;;;;;;;;;11.50;97.50;;;;;;4331977;33;43700;-76
2022/05/30 04:40:25;;;;;;;;;;;11.50;97.60;;;;;;4331389;33;43438;-76
2022/05/30 04:42:58;;;;;;;;;;;11.50;97.60;;;;;;4332362;33;20069;-75
2022/05/30 04:45:27;;;;;;;;;;;11.50;97.70;;;;;;4331946;33;44316;-76
2022/05/30 04:47:55;;;;;;;;;;;11.50;97.70;;;;;;4331747;33;43080;-76
2022/05/30 04:50:22;;;;;;;;;;;11.40;97.60;;;;;;4331329;33;43428;-76
2022/05/30 04:52:54;;;;;;;;;;;11.40;97.60;;;;;;4331633;33;44191;-76
2022/05/30 04:55:21;;;;;;;;;;;11.40;97.60;;;;;;4331182;33;43486;-76
2022/05/30 04:57:54;;;;;;;;;;;11.50;97.70;;;;;;4331107;33;42587;-76
2022/05/30 05:00:27;;;;;;;;;;;11.50;97.70;;;;;;4318403;33;44272;-76
2022/05/30 05:03:00;;;;;;;;;;;11.40;97.80;;;;;;4330963;33;42412;-76
2022/05/30 05:05:39;;;;;;;;;;;11.40;98.00;;;;;;4331465;33;42437;-75
2022/05/30 05:08:26;;;;;;;;;;;11.40;98.10;;;;;;4331027;33;42953;-76
2022/05/30 05:11:04;;;;;;;;;;;11.40;98.30;;;;;;4331510;33;45803;-76
2022/05/30 05:13:37;;;;;;;;;;;11.40;98.10;;;;;;4317879;33;42832;-76
2022/05/30 05:16:12;;;;;;;;;;;11.40;98.40;;;;;;4318925;33;44200;-76
2022/05/30 05:18:42;;;;;;;;;;;11.40;98.50;;;;;;4331038;33;43651;-75
2022/05/30 05:21:41;;;;;;;;;;;11.40;98.40;;;;;;4331228;33;44282;-76
2022/05/30 05:24:26;;;;;;;;;;;11.40;98.60;;;;;;4318135;33;45048;-76
2022/05/30 05:27:03;;;;;;;;;;;11.40;98.70;;;;;;4331122;33;45729;-76
2022/05/30 05:29:42;;;;;;;;;;;11.40;98.80;;;;;;4317580;33;43690;-76
2022/05/30 05:32:15;;;;;;;;;;;11.40;98.80;;;;;;4317331;33;42594;-76
2022/05/30 05:34:56;;;;;;;;;;;11.40;98.90;;;;;;4330708;33;43226;-76
2022/05/30 05:37:31;;;;;;;;;;;11.40;99.00;;;;;;4330973;33;45841;-76
2022/05/30 05:40:09;;;;;;;;;;;11.40;99.00;;;;;;4331117;33;42430;-75
2022/05/30 05:42:42;;;;;;;;;;;11.40;99.10;;;;;;4317558;33;43023;-76
2022/05/30 05:45:12;;;;;;;;;;;11.40;99.20;;;;;;4331051;33;43869;-76
2022/05/30 05:47:51;;;;;;;;;;;11.40;99.20;;;;;;4317741;33;43400;-76
2022/05/30 05:50:32;;;;;;;;;;;11.40;99.30;;;;;;4317479;33;43486;-76
2022/05/30 05:53:04;;;;;;;;;;;11.50;99.50;;;;;;4331018;33;43747;-75
2022/05/30 05:55:45;;;;;;;;;;;11.40;99.20;;;;;;4330421;33;42438;-76
2022/05/30 05:58:23;;;;;;;;;;;11.50;99.70;;;;;;4330740;33;43448;-76
2022/05/30 06:01:02;;;;;;;;;;;11.50;99.50;;;;;;4330915;33;43068;-76
2022/05/30 06:03:40;;;;;;;;;;;11.50;99.70;;;;;;4330481;33;43371;-76
2022/05/30 06:06:13;;;;;;;;;;;11.50;99.80;;;;;;4317446;33;42201;-76
2022/05/30 06:08:41;;;;;;;;;;;11.40;99.90;;;;;;4317632;33;43049;-76
2022/05/30 06:11:08;;;;;;;;;;;11.50;99.80;;;;;;4317182;33;42858;-76
2022/05/30 06:13:37;;;;;;;;;;;11.50;99.90;;;;;;4316850;33;43896;-76
2022/05/30 06:16:10;;;;;;;;;;;11.50;99.90;;;;;;4330789;33;20327;-76
2022/05/30 06:18:52;;;;;;;;;;;11.50;99.90;;;;;;4330212;33;42573;-76
2022/05/30 06:21:33;;;;;;;;;;;11.50;99.80;;;;;;4330632;33;44001;-75
2022/05/30 06:24:15;;;;;;;;;;;11.50;99.90;;;;;;4317266;33;42812;-76
2022/05/30 06:26:51;;;;;;;;;;;11.50;99.90;;;;;;4317021;33;43498;-75
2022/05/30 06:29:32;;;;;;;;;;;11.50;99.90;;;;;;4330504;33;42579;-76
2022/05/30 06:32:10;;;;;;;;;;;11.50;99.90;;;;;;4330232;33;43015;-76
2022/05/30 06:34:40;;;;;;;;;;;11.60;99.90;;;;;;4330326;33;43103;-76
2022/05/30 06:37:16;;;;;;;;;;;11.50;99.90;;;;;;4330582;33;43683;-76
2022/05/30 06:39:55;;;;;;;;;;;11.60;99.90;;;;;;4330508;33;43837;-76
2022/05/30 06:42:31;;;;;;;;;;;11.60;99.90;;;;;;4316918;33;44058;-76
2022/05/30 06:45:09;;;;;;;;;;;11.60;99.90;;;;;;4318415;33;44030;-76
2022/05/30 06:47:47;;;;;;;;;;;11.60;99.90;;;;;;4334736;33;20368;-76
2022/05/30 06:50:27;;;;;;;;;;;11.60;99.90;;;;;;4333397;33;43028;-76
2022/05/30 06:53:03;;;;;;;;;;;11.60;99.90;;;;;;4319760;33;42798;-76
2022/05/30 06:55:41;;;;;;;;;;;11.60;99.90;;;;;;4333105;33;43698;-76
2022/05/30 06:58:17;;;;;;;;;;;11.60;99.90;;;;;;4319746;33;44199;-76
2022/05/30 07:00:48;;;;;;;;;;;11.60;99.90;;;;;;4320035;33;43183;-76
2022/05/30 07:03:26;;;;;;;;;;;11.60;99.90;;;;;;4332910;33;42581;-76
2022/05/30 07:06:04;;;;;;;;;;;11.60;99.90;;;;;;4333255;33;43029;-76
2022/05/30 07:08:42;;;;;;;;;;;11.60;99.90;;;;;;4332789;33;43577;-76
2022/05/30 07:11:27;;;;;;;;;;;11.70;99.90;;;;;;4333059;33;43555;-76
2022/05/30 07:13:56;;;;;;;;;;;11.70;99.90;;;;;;4320024;33;43193;-76
2022/05/30 07:16:34;;;;;;;;;;;11.70;99.90;;;;;;4319264;33;42716;-76
2022/05/30 07:19:03;;;;;;;;;;;11.70;99.90;;;;;;4333373;33;19993;-76
2022/05/30 07:21:41;;;;;;;;;;;11.70;99.90;;;;;;4332349;33;42479;-76
2022/05/30 07:24:21;;;;;;;;;;;11.70;99.90;;;;;;4333145;33;43478;-76
2022/05/30 07:26:51;;;;;;;;;;;11.70;99.90;;;;;;4320162;33;43678;-76
2022/05/30 07:29:26;;;;;;;;;;;11.70;99.90;;;;;;4319056;33;43747;-76
2022/05/30 07:32:06;;;;;;;;;;;11.70;99.90;;;;;;4318938;33;42623;-76
2022/05/30 07:34:38;;;;;;;;;;;11.70;99.90;;;;;;4319126;33;42866;-76
2022/05/30 07:37:19;;;;;;;;;;;11.70;99.90;;;;;;4319447;33;42148;-76
2022/05/30 07:39:49;;;;;;;;;;;11.70;99.90;;;;;;4319217;33;42896;-76
2022/05/30 07:42:25;;;;;;;;;;;11.70;99.90;;;;;;4319336;33;43002;-76
2022/05/30 07:44:55;;;;;;;;;;;11.70;99.90;;;;;;4319313;33;43524;-76
2022/05/30 07:47:28;;;;;;;;;;;11.80;99.90;;;;;;4319874;33;45790;-76
2022/05/30 07:50:06;;;;;;;;;;;11.80;99.90;;;;;;4319362;33;43761;-76
2022/05/30 07:52:41;;;;;;;;;;;11.80;99.90;;;;;;4332168;33;43494;-76
2022/05/30 07:55:12;;;;;;;;;;;11.70;99.90;;;;;;4319258;33;44184;-76
2022/05/30 07:57:52;;;;;;;;;;;11.80;99.90;;;;;;4331974;33;43704;-76
2022/05/30 08:00:22;;;;;;;;;;;11.80;99.90;;;;;;4332412;33;43735;-76
2022/05/30 08:02:57;;;;;;;;;;;11.80;99.90;;;;;;4331754;33;44007;-75
2022/05/30 08:05:25;;;;;;;;;;;11.80;99.90;;;;;;4332250;33;43073;-76
2022/05/30 08:07:58;;;;;;;;;;;11.80;99.90;;;;;;4332279;33;42479;-76
2022/05/30 08:10:39;;;;;;;;;;;11.80;99.90;;;;;;4319141;33;43515;-75
2022/05/30 08:13:20;;;;;;;;;;;11.80;99.90;;;;;;4318587;33;42722;-75
2022/05/30 08:15:59;;;;;;;;;;;11.80;99.90;;;;;;4317685;33;43706;-75
2022/05/30 08:18:37;;;;;;;;;;;11.80;99.90;;;;;;4332062;33;44028;-75
2022/05/30 08:21:07;;;;;;;;;;;11.80;99.90;;;;;;4319277;33;43718;-76
2022/05/30 08:23:43;;;;;;;;;;;11.80;99.90;;;;;;4331530;33;43706;-76
2022/05/30 08:26:21;;;;;;;;;;;11.80;99.90;;;;;;4331926;33;43720;-76
2022/05/30 08:28:59;;;;;;;;;;;11.80;99.90;;;;;;4332060;33;43826;-75
2022/05/30 08:31:35;;;;;;;;;;;11.80;99.70;;;;;;4331774;33;42863;-76
2022/05/30 08:34:18;;;;;;;;;;;11.80;99.50;;;;;;4332066;33;43486;-76
2022/05/30 08:36:59;;;;;;;;;;;11.70;99.40;;;;;;4331856;33;44202;-75
2022/05/30 08:42:28;;;;;;;;;;;11.80;99.40;;;;;;4331979;33;45624;-76
2022/05/30 08:45:08;;;;;;;;;;;11.80;99.50;;;;;;4331868;33;42847;-75
2022/05/30 08:47:41;;;;;;;;;;;11.80;99.40;;;;;;4331919;33;43753;-76
2022/05/30 08:50:30;;;;;;;;;;;11.80;99.50;;;;;;4331530;33;42089;-76
2022/05/30 08:53:28;;;;;;;;;;;11.80;99.50;;;;;;4320647;33;20001;-75
2022/05/30 08:56:20;;;;;;;;;;;11.80;99.50;;;;;;4317797;33;42441;-76
2022/05/30 08:59:08;;;;;;;;;;;11.80;99.20;;;;;;4318209;33;43083;-76
2022/05/30 09:02:01;;;;;;;;;;;11.80;99.30;;;;;;4317849;33;43669;-76
2022/05/30 09:04:44;;;;;;;;;;;11.90;99.10;;;;;;4331077;33;44218;-76
2022/05/30 09:07:16;;;;;;;;;;;11.80;99.10;;;;;;4331167;33;43581;-75
2022/05/30 09:09:48;;;;;;;;;;;11.90;99.30;;;;;;4331115;33;43002;-76
2022/05/30 09:12:27;;;;;;;;;;;11.90;99.20;;;;;;4331321;33;42833;-75
2022/05/30 09:15:06;;;;;;;;;;;11.90;99.10;;;;;;4318189;33;44062;-76
2022/05/30 09:17:48;;;;;;;;;;;11.90;99.30;;;;;;4331566;33;42883;-76
2022/05/30 09:20:22;;;;;;;;;;;11.90;99.00;;;;;;4330968;33;43619;-76
2022/05/30 09:22:56;;;;;;;;;;;11.90;98.90;;;;;;4331165;33;44638;-76
2022/05/30 09:28:19;;;;;;;;;;;12.00;98.60;;;;;;4331143;33;42886;-76
2022/05/30 09:31:02;;;;;;;;;;;12.00;98.70;;;;;;4318014;33;43025;-75
2022/05/30 09:33:45;;;;;;;;;;;12.00;98.80;;;;;;4331176;33;43071;-76
2022/05/30 09:36:33;;;;;;;;;;;11.90;98.80;;;;;;4330725;33;42602;-76
2022/05/30 09:39:08;;;;;;;;;;;12.00;98.80;;;;;;4317794;33;43766;-76
2022/05/30 09:42:01;;;;;;;;;;;12.00;99.10;;;;;;4317813;33;42633;-76
2022/05/30 09:44:49;;;;;;;;;;;12.00;98.70;;;;;;4330751;33;43653;-76
2022/05/30 09:47:30;;;;;;;;;;;12.00;98.60;;;;;;4330883;33;43085;-76
2022/05/30 09:50:14;;;;;;;;;;;12.00;98.40;;;;;;4317300;33;43487;-76
2022/05/30 09:52:41;;;;;;;;;;;12.00;98.40;;;;;;4330432;33;45606;-76
2022/05/30 09:55:21;;;;;;;;;;;12.00;98.20;;;;;;4330623;33;42889;-76
2022/05/30 09:57:57;;;;;;;;;;;12.00;98.00;;;;;;4317236;33;44219;-76
2022/05/30 10:00:50;;;;;;;;;;;12.00;98.20;;;;;;4330814;33;44351;-76
2022/05/30 10:03:44;;;;;;;;;;;12.10;98.20;;;;;;4330310;33;42129;-76
2022/05/30 10:06:20;;;;;;;;;;;12.10;98.20;;;;;;4317740;33;43163;-77
2022/05/30 10:09:13;;;;;;;;;;;12.10;97.80;;;;;;4317984;33;43428;-76
2022/05/30 10:11:57;;;;;;;;;;;12.10;97.30;;;;;;4317231;33;42159;-76
2022/05/30 10:14:39;;;;;;;;;;;12.10;97.60;;;;;;4317397;33;42899;-76
2022/05/30 10:17:11;;;;;;;;;;;12.10;98.10;;;;;;4330791;33;45797;-76
2022/05/30 10:19:51;;;;;;;;;;;12.10;97.80;;;;;;4330686;33;43605;-76
2022/05/30 10:28:40;;;;;;;;;;;12.20;97.60;;;;;;4330084;33;43573;-76
2022/05/30 10:31:28;;;;;;;;;;;12.20;96.70;;;;;;4330078;33;43688;-76
2022/05/30 10:34:31;;;;;;;;;;;12.20;97.10;;;;;;4330544;33;42930;-76
2022/05/30 10:37:18;;;;;;;;;;;12.20;97.10;;;;;;4256344;33;43080;-76
2022/05/30 10:40:04;;;;;;;;;;;12.20;97.00;;;;;;4313941;33;44085;-76
2022/05/30 10:42:46;;;;;;;;;;;12.20;97.00;;;;;;4316977;33;43020;-76
2022/05/30 10:45:29;;;;;;;;;;;12.20;96.90;;;;;;4317142;33;43490;-76
2022/05/30 10:48:12;;;;;;;;;;;12.20;96.80;;;;;;4330449;33;43849;-76
2022/05/30 10:50:55;;;;;;;;;;;12.30;96.60;;;;;;4316710;33;43487;-76
2022/05/30 10:53:37;;;;;;;;;;;12.20;96.90;;;;;;4317222;33;42490;-76
2022/05/30 10:56:13;;;;;;;;;;;12.30;96.50;;;;;;4317685;33;20057;-76
2022/05/30 10:58:52;;;;;;;;;;;12.30;96.20;;;;;;4330419;33;43715;-77
2022/05/30 11:01:37;;;;;;;;;;;12.30;96.30;;;;;;4330445;33;44761;-77
2022/05/30 11:04:40;;;;;;;;;;;12.30;95.90;;;;;;4330053;33;43470;-77
2022/05/30 11:07:28;;;;;;;;;;;12.30;95.70;;;;;;4330233;33;43477;-77
2022/05/30 11:10:10;;;;;;;;;;;12.30;95.00;;;;;;4317030;33;43659;-77
2022/05/30 11:12:50;;;;;;;;;;;12.40;95.50;;;;;;4329989;33;42452;-77
2022/05/30 11:15:38;;;;;;;;;;;12.40;95.70;;;;;;4330324;33;45794;-77
2022/05/30 11:18:19;;;;;;;;;;;12.40;95.10;;;;;;4330168;33;42500;-77
2022/05/30 11:20:49;;;;;;;;;;;12.40;95.10;;;;;;4330419;33;42998;-77
2022/05/30 11:23:24;;;;;;;;;;;12.40;95.20;;;;;;4317270;33;43005;-77
2022/05/30 11:26:15;;;;;;;;;;;12.40;94.60;;;;;;4329797;33;42753;-77
2022/05/30 11:29:00;;;;;;;;;;;12.40;94.80;;;;;;4317348;33;20009;-77
2022/05/30 11:31:40;;;;;;;;;;;12.40;95.10;;;;;;4332035;33;42840;-77
2022/05/30 11:34:29;;;;;;;;;;;12.40;95.00;;;;;;4333048;33;43205;-76
2022/05/30 11:37:13;;;;;;;;;;;12.50;95.30;;;;;;4333016;33;43683;-77
2022/05/30 11:39:47;;;;;;;;;;;12.50;94.90;;;;;;4319538;33;42532;-77
2022/05/30 11:42:31;;;;;;;;;;;12.50;95.10;;;;;;4332686;33;45912;-77
2022/05/30 11:45:13;;;;;;;;;;;12.50;94.40;;;;;;4332291;33;42861;-77
2022/05/30 11:48:05;;;;;;;;;;;12.50;94.40;;;;;;4332811;33;43881;-77
2022/05/30 11:50:35;;;;;;;;;;;12.50;94.50;;;;;;4319242;33;42904;-77
2022/05/30 11:53:26;;;;;;;;;;;12.50;94.30;;;;;;4332145;33;42116;-77
2022/05/30 11:56:18;;;;;;;;;;;12.50;94.50;;;;;;4332575;33;44132;-77
2022/05/30 11:59:09;;;;;;;;;;;12.50;94.90;;;;;;4333056;33;19989;-77
2022/05/30 12:01:46;;;;;;;;;;;12.50;95.00;;;;;;4312915;33;43717;-77
2022/05/30 12:04:28;;;;;;;;;;;12.50;95.10;;;;;;4332648;33;43393;-77
2022/05/30 12:07:16;;;;;;;;;;;12.50;95.10;;;;;;4332069;33;44098;-77
2022/05/30 12:10:02;;;;;;;;;;;12.50;95.10;;;;;;4319162;33;42881;-76
2022/05/30 12:12:36;;;;;;;;;;;12.50;95.00;;;;;;4332353;33;43061;-77
2022/05/30 12:15:28;;;;;;;;;;;12.60;95.00;;;;;;4331862;33;44827;-77
2022/05/30 12:24:28;;;;;;;;;;;12.60;95.30;;;;;;4332164;33;44818;-76
2022/05/30 12:27:14;;;;;;;;;;;12.60;94.60;;;;;;4332118;33;43664;-77
2022/05/30 12:29:56;;;;;;;;;;;12.60;95.00;;;;;;4332930;33;20072;-77
2022/05/30 12:32:32;;;;;;;;;;;12.60;95.10;;;;;;4332277;33;43819;-76
2022/05/30 12:35:05;;;;;;;;;;;12.60;94.30;;;;;;4318830;33;45749;-76
2022/05/30 12:38:06;;;;;;;;;;;12.70;95.00;;;;;;4319747;33;43146;-76
2022/05/30 12:40:48;;;;;;;;;;;12.70;95.10;;;;;;4331978;33;43143;-76
2022/05/30 12:43:49;;;;;;;;;;;12.70;95.20;;;;;;4331256;33;43027;-76
2022/05/30 12:46:28;;;;;;;;;;;12.70;95.10;;;;;;4331515;33;43672;-77
2022/05/30 12:49:30;;;;;;;;;;;12.70;95.00;;;;;;4318867;33;43894;-76
2022/05/30 12:52:09;;;;;;;;;;;12.80;95.20;;;;;;4311349;33;43742;-76
2022/05/30 12:54:43;;;;;;;;;;;12.80;95.10;;;;;;4318624;33;43031;-77
2022/05/30 12:57:33;;;;;;;;;;;12.80;95.10;;;;;;4318130;33;43730;-76
2022/05/30 13:00:14;;;;;;;;;;;12.90;94.40;;;;;;4320239;33;43775;-77
2022/05/30 13:03:16;;;;;;;;;;;12.90;93.40;;;;;;4331164;33;44827;-77
2022/05/30 13:06:02;;;;;;;;;;;12.90;94.60;;;;;;4331612;33;43083;-77
2022/05/30 13:08:52;;;;;;;;;;;13.00;94.10;;;;;;4331597;33;44179;-77
2022/05/30 13:11:54;;;;;;;;;;;13.00;94.40;;;;;;4318159;33;43756;-77
2022/05/30 13:14:42;;;;;;;;;;;13.00;93.60;;;;;;4331474;33;44865;-76
2022/05/30 13:17:46;;;;;;;;;;;13.00;94.40;;;;;;4331376;33;43758;-77
2022/05/30 13:20:25;;;;;;;;;;;13.00;92.90;;;;;;4317708;33;43145;-77
2022/05/30 13:23:07;;;;;;;;;;;13.10;94.20;;;;;;4331350;33;42644;-77
2022/05/30 13:25:51;;;;;;;;;;;13.10;94.40;;;;;;4318105;33;44192;-77
2022/05/30 13:28:33;;;;;;;;;;;13.10;93.20;;;;;;4331278;33;43116;-77
2022/05/30 13:31:08;;;;;;;;;;;13.20;92.60;;;;;;4332130;33;20001;-77
2022/05/30 13:33:40;;;;;;;;;;;13.20;93.30;;;;;;4318031;33;43608;-77
2022/05/30 13:36:31;;;;;;;;;;;13.30;93.70;;;;;;4331116;33;43104;-76
2022/05/30 13:39:09;;;;;;;;;;;13.30;92.90;;;;;;4331042;33;43767;-76
2022/05/30 13:41:44;;;;;;;;;;;13.30;93.30;;;;;;4331174;33;43700;-77
2022/05/30 13:44:42;;;;;;;;;;;13.30;93.20;;;;;;4331091;33;43748;-77
2022/05/30 13:47:25;;;;;;;;;;;13.30;93.50;;;;;;4317437;33;43581;-77
2022/05/30 13:50:09;;;;;;;;;;;13.40;93.60;;;;;;4317552;33;44774;-77
2022/05/30 13:52:47;;;;;;;;;;;13.40;93.40;;;;;;4316961;33;44039;-77
2022/05/30 13:55:50;;;;;;;;;;;13.40;92.00;;;;;;4330669;33;45004;-76
2022/05/30 13:58:29;;;;;;;;;;;13.40;91.40;;;;;;4304393;33;43319;-76
2022/05/30 14:01:14;;;;;;;;;;;13.40;92.40;;;;;;4318013;33;44188;-77
2022/05/30 14:03:59;;;;;;;;;;;13.50;93.30;;;;;;4316688;33;43486;-76
2022/05/30 14:06:43;;;;;;;;;;;13.50;93.10;;;;;;4317401;33;42470;-77
2022/05/30 14:09:20;;;;;;;;;;;13.50;93.00;;;;;;4317419;33;42997;-77
2022/05/30 14:12:03;;;;;;;;;;;13.60;92.80;;;;;;4330404;33;42464;-77
2022/05/30 14:15:16;;;;;;;;;;;13.60;92.60;;;;;;4331399;33;20040;-77
2022/05/30 14:17:54;;;;;;;;;;;13.60;92.40;;;;;;4330507;33;43772;-77
2022/05/30 14:20:27;;;;;;;;;;;13.60;92.50;;;;;;4330958;33;43031;-77
2022/05/30 14:23:15;;;;;;;;;;;13.60;92.90;;;;;;4329938;33;44239;-77
2022/05/30 14:25:53;;;;;;;;;;;13.70;92.80;;;;;;4330384;33;43345;-77
2022/05/30 14:28:38;;;;;;;;;;;13.70;92.80;;;;;;4317364;33;44298;-77
2022/05/30 14:31:19;;;;;;;;;;;13.70;92.70;;;;;;4330483;33;43681;-77
2022/05/30 14:34:13;;;;;;;;;;;13.70;92.70;;;;;;4330235;33;43128;-77
2022/05/30 14:36:54;;;;;;;;;;;13.80;93.00;;;;;;4330328;33;43913;-76
2022/05/30 14:39:49;;;;;;;;;;;13.80;91.80;;;;;;4330495;33;42980;-77
2022/05/30 14:42:28;;;;;;;;;;;13.80;91.70;;;;;;4329916;33;43682;-77
2022/05/30 14:45:16;;;;;;;;;;;13.80;92.40;;;;;;4330035;33;43569;-76
2022/05/30 14:47:58;;;;;;;;;;;13.80;91.70;;;;;;4329851;33;42882;-76
2022/05/30 14:50:37;;;;;;;;;;;13.90;92.00;;;;;;4330512;33;43959;-76
2022/05/30 14:53:10;;;;;;;;;;;13.90;92.00;;;;;;4330568;33;42622;-76
2022/05/30 14:56:07;;;;;;;;;;;13.90;92.20;;;;;;4317004;33;43117;-76
2022/05/30 14:59:01;;;;;;;;;;;13.90;92.00;;;;;;4315504;33;43134;-76
2022/05/30 15:01:54;;;;;;;;;;;14.00;92.20;;;;;;4318314;33;42955;-76
2022/05/30 15:04:32;;;;;;;;;;;14.00;92.00;;;;;;4329859;33;43788;-76
2022/05/30 15:07:17;;;;;;;;;;;14.00;92.30;;;;;;4319072;33;42132;-76
2022/05/30 15:09:56;;;;;;;;;;;14.00;91.60;;;;;;4333165;33;43605;-76
2022/05/30 15:12:34;;;;;;;;;;;14.00;91.60;;;;;;4333148;33;43034;-77
2022/05/30 15:15:15;;;;;;;;;;;14.00;91.70;;;;;;4319856;33;42474;-77
2022/05/30 15:17:54;;;;;;;;;;;14.00;91.30;;;;;;4319582;33;43130;-77
2022/05/30 15:20:29;;;;;;;;;;;14.00;91.60;;;;;;4333054;33;42417;-77
2022/05/30 15:23:10;;;;;;;;;;;14.00;91.60;;;;;;4319728;33;43003;-77
2022/05/30 15:25:37;;;;;;;;;;;14.00;91.80;;;;;;4332975;33;43771;-77
2022/05/30 15:28:15;;;;;;;;;;;14.00;91.50;;;;;;4319772;33;43360;-76
2022/05/30 15:30:54;;;;;;;;;;;14.00;90.10;;;;;;4332447;33;42968;-77
2022/05/30 15:33:33;;;;;;;;;;;14.00;89.40;;;;;;4320068;33;20005;-77
2022/05/30 15:36:11;;;;;;;;;;;14.00;89.70;;;;;;4332883;33;43127;-77
2022/05/30 15:39:09;;;;;;;;;;;14.00;88.90;;;;;;4332178;33;46197;-77
2022/05/30 15:41:47;;;;;;;;;;;14.00;88.10;;;;;;4332575;33;42180;-76